Rechercher aéroport 
image banner adimage banner adimage banner ad
image banner ad

KLSN - Los Banos Muni

Situé à Los Banos, United States

ICAO - LSN, IATA - LSN

Données fournies par Airmate  

Information générale

Coordonnées: N37°3'50" W120°52'11"
Élévation : 121 feet MSL.
Variation magnétique : 16° East
Voir autres Aéroports à California

Données opérationnelles

Special qualification required
Heure actuelle UTC:
Heure actuelle locale:
Météo à : KMCE - Merced Rgnl/Macready Field ( 40 km )
METAR: KMCE 020553Z AUTO 31009KT 10SM CLR 24/12 A2998 RMK AO2 SLP150 T02440122 10378 20244 51019
TAF: KMCE 020520Z 0206/0306 32006KT P6SM SKC
Voir NOTAMs / SUP AIP / TFR affectant cet aéroport [VIEW]
Fréquences de communication: [VIEW]

Pistes:

Identifiant RWYQFULongueur (ft)Largeur (ft)SurfaceLDA (ft)
14153°380175ASPH
32333°380175ASPH

Coordonnées de l'aéroport

Adresse: Los Banos United States

Vue satellite de KLSN